Time;durP1;ratioP1;P1;durP2;ratioP2;P2;SDS_P1;SDS_P2;PMS_P1;PMS_P2;Temp;Humidity;BMP_temperature;BMP_pressure;BME280_temperature;BME280_humidity;BME280_pressure;Samples;Min_cycle;Max_cycle;Signal;HPM_P1;HPM_P2
2022/03/16 00:01:44;;;;;;;24.83;15.82;;;;;;;6.74;76.32;101797.47;7397467;19;20019;-66
2022/03/16 00:04:12;;;;;;;27.65;16.75;;;;;;;6.75;76.32;101798.34;7397359;19;20019;-66
2022/03/16 00:06:40;;;;;;;26.60;17.90;;;;;;;6.73;76.33;101800.94;7399639;19;20018;-67
2022/03/16 00:09:08;;;;;;;29.30;17.98;;;;;;;6.71;76.39;101797.47;7399614;19;20035;-66
2022/03/16 00:11:39;;;;;;;27.15;17.40;;;;;;;6.68;76.23;101798.31;7397508;19;20026;-67
2022/03/16 00:14:07;;;;;;;28.65;16.77;;;;;;;6.67;76.33;101796.53;7397319;19;20022;-66
2022/03/16 00:16:35;;;;;;;24.60;16.42;;;;;;;6.65;76.56;101793.03;7399276;19;20027;-66
2022/03/16 00:19:03;;;;;;;25.00;18.15;;;;;;;6.62;76.48;101795.63;7396579;19;20483;-65
2022/03/16 00:21:32;;;;;;;27.33;16.45;;;;;;;6.60;76.52;101794.72;7399257;19;20035;-65
2022/03/16 00:24:00;;;;;;;26.80;19.10;;;;;;;6.56;76.68;101792.94;7396513;19;20026;-66
2022/03/16 00:26:28;;;;;;;25.55;17.15;;;;;;;6.54;76.98;101804.22;7399037;19;20023;-65
2022/03/16 00:28:58;;;;;;;30.90;18.48;;;;;;;6.50;77.06;101803.28;7398557;19;20472;-66
2022/03/16 00:31:27;;;;;;;27.20;17.45;;;;;;;6.45;76.98;101808.44;7396943;19;20043;-66
2022/03/16 00:33:55;;;;;;;24.35;17.40;;;;;;;6.43;77.08;101811.88;7396474;19;20374;-65
2022/03/16 00:36:24;;;;;;;29.23;17.70;;;;;;;6.39;77.27;101815.31;7398378;19;20402;-66
2022/03/16 00:38:52;;;;;;;30.15;18.13;;;;;;;6.33;77.51;101809.19;7397323;19;20007;-66
2022/03/16 00:41:20;;;;;;;30.10;17.67;;;;;;;6.28;77.51;101813.47;7396398;19;20022;-66
2022/03/16 00:43:48;;;;;;;25.65;18.17;;;;;;;6.21;77.62;101813.34;7396289;19;20014;-66
2022/03/16 00:46:19;;;;;;;27.42;18.65;;;;;;;6.11;77.66;101809.75;7396317;19;20018;-66
2022/03/16 00:48:47;;;;;;;30.73;18.73;;;;;;;6.03;77.89;101815.72;7398596;19;20043;-65
2022/03/16 00:51:16;;;;;;;29.70;19.25;;;;;;;5.97;78.04;101812.97;7396823;19;20031;-65
2022/03/16 00:53:45;;;;;;;27.70;17.90;;;;;;;5.92;78.42;101813.78;7396498;19;20026;-65
2022/03/16 00:56:14;;;;;;;28.10;18.00;;;;;;;5.86;78.25;101811.94;7395974;19;20018;-66
2022/03/16 00:58:43;;;;;;;29.48;17.90;;;;;;;5.83;78.52;101814.53;7395898;19;20036;-66
2022/03/16 01:01:11;;;;;;;30.75;19.42;;;;;;;5.78;78.71;101817.03;7396301;19;20018;-65
2022/03/16 01:03:42;;;;;;;26.77;18.05;;;;;;;5.74;78.53;101820.47;7397244;19;20026;-66
2022/03/16 01:06:15;;;;;;;27.70;17.88;;;;;;;5.71;78.76;101820.41;7398173;19;20364;-65
2022/03/16 01:08:43;;;;;;;27.45;18.88;;;;;;;5.67;78.75;101819.50;7398109;19;20037;-66
2022/03/16 01:11:11;;;;;;;27.88;17.58;;;;;;;5.66;79.04;101822.06;7395437;19;20053;-65
2022/03/16 01:13:40;;;;;;;31.75;19.30;;;;;;;5.64;78.90;101828.97;7396038;19;20035;-66
2022/03/16 01:16:08;;;;;;;30.52;18.83;;;;;;;5.59;79.06;101820.22;7396990;19;20434;-66
2022/03/16 01:18:36;;;;;;;32.20;18.40;;;;;;;5.54;79.25;101830.56;7397059;19;20032;-66
2022/03/16 01:21:10;;;;;;;30.38;18.63;;;;;;;5.50;79.20;101826.16;7395306;19;20019;-65
2022/03/16 01:23:39;;;;;;;27.57;18.03;;;;;;;5.45;79.20;101833.88;7395236;19;20014;-66
2022/03/16 01:26:08;;;;;;;28.77;17.38;;;;;;;5.40;79.25;101838.13;7396516;19;20425;-66
2022/03/16 01:28:36;;;;;;;29.67;18.15;;;;;;;5.36;79.37;101839.81;7395119;19;20350;-65
2022/03/16 01:31:04;;;;;;;25.17;17.27;;;;;;;5.30;79.66;101844.03;7395981;19;20022;-65
2022/03/16 01:33:33;;;;;;;26.40;16.83;;;;;;;5.25;79.48;101851.75;7395381;19;20022;-66
2022/03/16 01:36:01;;;;;;;24.40;16.38;;;;;;;5.21;79.68;101849.94;7393014;19;20015;-65
2022/03/16 01:38:31;;;;;;;26.65;16.27;;;;;;;5.17;79.87;101850.75;7393835;19;21210;-65
2022/03/16 01:41:00;;;;;;;26.00;16.63;;;;;;;5.14;79.81;101853.28;7398003;19;20022;-65
2022/03/16 01:43:28;;;;;;;26.88;16.42;;;;;;;5.12;79.85;101858.47;7395315;19;20036;-65
2022/03/16 01:45:56;;;;;;;26.65;17.17;;;;;;;5.11;79.81;101853.22;7394670;19;20032;-65
2022/03/16 01:48:24;;;;;;;27.02;16.17;;;;;;;5.09;79.93;101860.13;7396304;19;20035;-65
2022/03/16 01:50:53;;;;;;;26.55;15.95;;;;;;;5.06;79.77;101850.53;7395606;19;20035;-65
2022/03/16 01:53:21;;;;;;;25.60;16.38;;;;;;;5.04;79.75;101852.22;7395054;19;20022;-65
2022/03/16 01:55:51;;;;;;;24.25;15.25;;;;;;;5.02;80.07;101857.41;7396112;19;20022;-66
2022/03/16 01:58:20;;;;;;;26.15;17.33;;;;;;;4.99;79.86;101859.94;7396364;19;20022;-66
2022/03/16 02:00:48;;;;;;;23.35;15.75;;;;;;;4.96;80.15;101870.28;7394215;19;20023;-66
2022/03/16 02:03:16;;;;;;;24.95;15.57;;;;;;;4.92;80.14;101873.69;7394756;19;20041;-66
2022/03/16 02:05:44;;;;;;;21.05;14.63;;;;;;;4.88;80.17;101877.94;7394085;19;20035;-66
2022/03/16 02:08:13;;;;;;;23.85;15.55;;;;;;;4.86;80.27;101876.16;7395247;19;20385;-66
2022/03/16 02:10:43;;;;;;;27.10;15.80;;;;;;;4.83;80.43;101889.97;7395198;19;20022;-66
2022/03/16 02:13:14;;;;;;;28.67;15.35;;;;;;;4.80;80.21;101889.03;7396138;19;20022;-66
2022/03/16 02:15:42;;;;;;;26.10;15.50;;;;;;;4.76;80.25;101892.41;7396028;19;20088;-66
2022/03/16 02:18:10;;;;;;;26.25;14.90;;;;;;;4.73;80.52;101901.03;7393681;19;20014;-66
2022/03/16 02:20:39;;;;;;;22.40;14.48;;;;;;;4.68;80.37;101895.72;7394066;19;20022;-66
2022/03/16 02:23:11;;;;;;;27.65;16.10;;;;;;;4.64;80.24;101895.63;7394275;19;20078;-66
2022/03/16 02:25:50;;;;;;;28.05;16.20;;;;;;;4.60;80.19;101910.28;7395634;19;20014;-66
2022/03/16 02:28:19;;;;;;;20.23;14.73;;;;;;;4.53;80.15;101905.78;7395663;19;20023;-66
2022/03/16 02:30:47;;;;;;;26.58;16.48;;;;;;;4.47;80.51;101916.06;7394544;19;20022;-66
2022/03/16 02:33:15;;;;;;;24.77;16.23;;;;;;;4.41;80.42;101916.81;7393074;19;20107;-66
2022/03/16 02:35:43;;;;;;;22.88;14.70;;;;;;;4.36;80.40;101921.91;7394552;19;20388;-66
2022/03/16 02:38:14;;;;;;;26.48;15.77;;;;;;;4.30;80.39;101934.75;7394834;19;20015;-66
2022/03/16 02:40:42;;;;;;;22.85;16.65;;;;;;;4.24;80.55;101939.78;7392825;19;20018;-66
2022/03/16 02:43:10;;;;;;;23.40;15.00;;;;;;;4.19;80.49;101938.81;7392760;19;20023;-66
2022/03/16 02:45:38;;;;;;;26.13;15.15;;;;;;;4.15;80.59;101940.44;7392752;19;20031;-66
2022/03/16 02:48:07;;;;;;;25.17;15.95;;;;;;;4.12;80.69;101939.50;7399412;19;20035;-66
2022/03/16 02:50:35;;;;;;;23.13;14.70;;;;;;;4.04;80.75;101937.59;7401975;19;20397;-66
2022/03/16 02:53:03;;;;;;;26.45;15.70;;;;;;;4.02;80.96;101951.38;7399036;19;20037;-66
2022/03/16 02:55:34;;;;;;;27.10;15.70;;;;;;;3.96;81.04;101946.03;7401766;19;20022;-66
2022/03/16 02:58:02;;;;;;;23.33;15.50;;;;;;;3.90;81.02;101958.03;7398956;19;20019;-66
2022/03/16 03:00:31;;;;;;;24.55;14.95;;;;;;;3.85;80.88;101963.94;7401270;19;20479;-66
2022/03/16 03:02:59;;;;;;;24.30;14.82;;;;;;;3.80;81.12;101971.59;7400795;19;20066;-66
2022/03/16 03:05:27;;;;;;;24.23;15.45;;;;;;;3.77;81.32;101979.31;7401575;19;20018;-66
2022/03/16 03:07:56;;;;;;;25.75;14.85;;;;;;;3.74;81.47;101984.41;7401054;19;20394;-66
2022/03/16 03:10:24;;;;;;;22.00;14.57;;;;;;;3.71;81.50;101990.41;7401078;19;20548;-66
2022/03/16 03:12:55;;;;;;;24.45;16.40;;;;;;;3.70;81.53;101998.16;7398545;19;20039;-66
2022/03/16 03:15:23;;;;;;;23.20;14.25;;;;;;;3.67;81.45;101993.75;7399374;19;20471;-66
2022/03/16 03:17:51;;;;;;;21.88;13.48;;;;;;;3.64;81.62;102005.78;7402701;19;20031;-66
2022/03/16 03:20:20;;;;;;;23.27;14.45;;;;;;;3.61;82.13;102006.56;7400433;19;20018;-66
2022/03/16 03:22:49;;;;;;;35.00;14.15;;;;;;;3.59;82.17;102014.31;7398478;19;20035;-66
2022/03/16 03:25:18;;;;;;;19.70;13.02;;;;;;;3.59;82.47;102010.88;7398329;19;20032;-66
2022/03/16 03:27:53;;;;;;;28.80;16.15;;;;;;;3.60;82.98;102015.19;7397810;19;20483;-66
2022/03/16 03:30:23;;;;;;;23.08;14.30;;;;;;;3.58;82.95;102027.25;7401190;19;20023;-66
2022/03/16 03:32:51;;;;;;;22.30;14.25;;;;;;;3.57;83.32;102028.09;7397855;19;20379;-66
2022/03/16 03:35:20;;;;;;;24.63;13.88;;;;;;;3.56;83.32;102026.34;7397882;19;20022;-67
2022/03/16 03:37:48;;;;;;;26.65;15.05;;;;;;;3.56;83.09;102027.22;7397784;19;20031;-67
2022/03/16 03:40:23;;;;;;;24.83;13.57;;;;;;;3.58;83.09;102029.88;7396984;19;20006;-65
2022/03/16 03:42:52;;;;;;;24.23;14.30;;;;;;;3.59;83.20;102029.91;7399344;19;20039;-65
2022/03/16 03:45:20;;;;;;;22.92;14.32;;;;;;;3.61;83.17;102029.06;7397879;19;20022;-65
2022/03/16 03:47:50;;;;;;;24.83;14.85;;;;;;;3.62;82.89;102031.69;7397808;19;20507;-66
2022/03/16 03:50:19;;;;;;;24.60;14.55;;;;;;;3.62;83.35;102031.69;7400730;19;20019;-66
2022/03/16 03:52:48;;;;;;;28.23;16.10;;;;;;;3.63;82.94;102033.47;7397506;19;20378;-65
2022/03/16 03:55:16;;;;;;;27.73;15.95;;;;;;;3.64;83.18;102035.22;7397772;19;20019;-66
2022/03/16 03:57:44;;;;;;;23.73;14.07;;;;;;;3.63;83.03;102033.47;7398554;19;20015;-65
2022/03/16 04:00:13;;;;;;;18.17;12.55;;;;;;;3.63;82.92;102038.66;7397440;19;20014;-66
2022/03/16 04:02:51;;;;;;;22.48;14.65;;;;;;;3.61;82.89;102040.31;7398953;19;20022;-65
2022/03/16 04:05:20;;;;;;;30.38;19.63;;;;;;;3.58;83.17;102045.44;7398557;19;20018;-66
2022/03/16 04:07:50;;;;;;;25.45;15.40;;;;;;;3.55;83.13;102053.13;7399442;19;20032;-66
2022/03/16 04:10:19;;;;;;;26.70;13.45;;;;;;;3.53;83.43;102041.84;7396945;19;20014;-65
2022/03/16 04:12:48;;;;;;;19.02;11.90;;;;;;;3.51;83.38;102048.69;7397427;19;20039;-65
2022/03/16 04:15:18;;;;;;;21.15;12.65;;;;;;;3.50;83.45;102049.50;7397077;19;20031;-66
2022/03/16 04:17:46;;;;;;;27.73;11.70;;;;;;;3.48;83.30;102059.00;7398998;19;20014;-66
2022/03/16 04:20:17;;;;;;;18.48;12.70;;;;;;;3.45;83.45;102069.25;7398910;19;20022;-66
2022/03/16 04:22:45;;;;;;;23.95;13.35;;;;;;;3.41;83.66;102074.38;7397195;19;20031;-66
2022/03/16 04:25:13;;;;;;;22.23;12.13;;;;;;;3.35;83.59;102074.19;7396863;19;20045;-66
2022/03/16 04:27:41;;;;;;;41.55;22.05;;;;;;;3.31;83.74;102082.72;7398806;19;20025;-66
2022/03/16 04:30:11;;;;;;;30.95;17.92;;;;;;;3.26;83.88;102084.28;7398636;19;20329;-66
2022/03/16 04:32:39;;;;;;;21.67;12.02;;;;;;;3.20;83.97;102092.75;7395814;19;20475;-65
2022/03/16 04:35:07;;;;;;;26.17;14.13;;;;;;;3.14;84.47;102095.16;7398449;19;20023;-66
2022/03/16 04:37:38;;;;;;;27.42;12.85;;;;;;;3.04;85.45;102106.09;7398423;19;20026;-66
2022/03/16 04:40:07;;;;;;;23.27;12.45;;;;;;;2.95;85.24;102103.22;7396842;19;20014;-66
2022/03/16 04:42:35;;;;;;;22.73;12.02;;;;;;;2.86;85.32;102101.22;7397569;19;20022;-66
2022/03/16 04:45:04;;;;;;;24.95;12.77;;;;;;;2.81;85.22;102105.38;7396045;19;20374;-66
2022/03/16 04:47:32;;;;;;;20.85;12.65;;;;;;;2.76;85.44;102106.09;7398450;19;20558;-66
2022/03/16 04:50:00;;;;;;;23.95;12.82;;;;;;;2.73;85.41;102111.19;7395901;19;20023;-66
2022/03/16 04:52:28;;;;;;;24.10;13.48;;;;;;;2.68;85.55;102110.16;7395516;19;20040;-66
2022/03/16 04:54:59;;;;;;;22.38;12.45;;;;;;;2.65;85.60;102124.72;7397248;19;20014;-66
2022/03/16 04:57:27;;;;;;;24.45;13.20;;;;;;;2.61;85.64;102118.56;7395973;19;20029;-66
2022/03/16 04:59:55;;;;;;;22.40;12.48;;;;;;;2.58;85.62;102121.06;7396948;19;20479;-66
2022/03/16 05:02:23;;;;;;;26.27;13.27;;;;;;;2.57;85.53;102127.06;7395390;19;20014;-66
2022/03/16 05:04:52;;;;;;;20.85;13.65;;;;;;;2.54;85.64;102127.84;7397601;19;20022;-66
2022/03/16 05:07:20;;;;;;;21.95;13.32;;;;;;;2.54;85.80;102132.13;7397109;19;20090;-66
2022/03/16 05:09:48;;;;;;;22.48;13.35;;;;;;;2.52;85.47;102132.09;7395013;19;20026;-66
2022/03/16 05:12:19;;;;;;;22.65;13.68;;;;;;;2.49;85.59;102138.88;7395650;19;20027;-66
2022/03/16 05:14:47;;;;;;;25.50;13.05;;;;;;;2.44;86.00;102137.00;7396481;19;20618;-66
2022/03/16 05:17:15;;;;;;;26.85;14.02;;;;;;;2.42;85.99;102138.66;7396323;19;20015;-66
2022/03/16 05:19:43;;;;;;;27.13;14.15;;;;;;;2.39;86.15;102142.84;7396443;19;20034;-66
2022/03/16 05:22:12;;;;;;;26.77;13.77;;;;;;;2.36;86.08;102140.16;7396439;19;20026;-66
2022/03/16 05:24:40;;;;;;;28.42;14.68;;;;;;;2.36;85.88;102148.78;7396494;19;20494;-68
2022/03/16 05:27:08;;;;;;;24.58;12.98;;;;;;;2.33;85.88;102151.28;7396514;19;20037;-67
2022/03/16 05:29:39;;;;;;;25.35;13.93;;;;;;;2.31;85.96;102149.47;7394791;19;20023;-66
2022/03/16 05:32:09;;;;;;;23.27;14.02;;;;;;;2.28;86.10;102147.66;7396054;19;20044;-66
2022/03/16 05:34:37;;;;;;;19.88;12.63;;;;;;;2.25;85.97;102139.78;7393797;19;20018;-66
2022/03/16 05:37:06;;;;;;;22.70;13.30;;;;;;;2.23;86.01;102144.03;7394216;19;20018;-66
2022/03/16 05:39:34;;;;;;;23.92;13.40;;;;;;;2.20;86.05;102147.41;7395815;19;20029;-67
2022/03/16 05:42:02;;;;;;;29.90;14.68;;;;;;;2.17;85.95;102156.75;7395449;19;20044;-66
2022/03/16 05:44:31;;;;;;;23.40;13.63;;;;;;;2.11;86.10;102153.13;7395671;19;20019;-65
2022/03/16 05:47:01;;;;;;;33.35;17.90;;;;;;;2.10;86.17;102159.13;7394369;19;20035;-65
2022/03/16 05:49:30;;;;;;;28.75;16.20;;;;;;;2.07;86.02;102160.72;7394399;19;20032;-66
2022/03/16 05:51:58;;;;;;;27.92;14.90;;;;;;;2.04;85.95;102164.09;7394815;19;20014;-67
2022/03/16 05:54:26;;;;;;;25.80;14.20;;;;;;;2.02;86.31;102158.00;7395561;19;20039;-67
2022/03/16 05:56:54;;;;;;;95.88;48.08;;;;;;;2.01;86.32;102161.41;7394735;19;20022;-66
2022/03/16 05:59:23;;;;;;;120.45;62.75;;;;;;;2.00;86.39;102164.81;7393020;19;20035;-67
2022/03/16 06:01:51;;;;;;;39.15;21.23;;;;;;;1.98;86.41;102163.84;7392757;19;20019;-66
2022/03/16 06:04:22;;;;;;;24.65;15.68;;;;;;;1.96;86.20;102173.28;7393244;19;20015;-66
2022/03/16 06:06:50;;;;;;;31.92;15.55;;;;;;;1.93;86.41;102168.88;7393950;19;20035;-66
2022/03/16 06:09:19;;;;;;;26.77;13.32;;;;;;;1.91;86.47;102177.44;7393055;19;20503;-66
2022/03/16 06:11:47;;;;;;;23.88;14.07;;;;;;;1.90;86.71;102183.41;7394550;19;20451;-66
2022/03/16 06:14:15;;;;;;;23.52;14.07;;;;;;;1.88;86.73;102185.06;7392588;19;20031;-66
2022/03/16 06:16:44;;;;;;;27.90;14.57;;;;;;;1.88;86.62;102172.97;7392901;19;20504;-66
2022/03/16 06:19:12;;;;;;;24.58;14.60;;;;;;;1.89;86.78;102171.28;7394539;19;20508;-70
2022/03/16 06:21:43;;;;;;;31.20;15.68;;;;;;;1.89;86.92;102171.28;7393455;19;20031;-66
2022/03/16 06:24:11;;;;;;;25.60;14.98;;;;;;;1.91;86.90;102169.66;7392804;19;20031;-66
2022/03/16 06:26:40;;;;;;;31.88;16.75;;;;;;;1.93;87.11;102161.13;7393391;19;20041;-67
2022/03/16 06:29:08;;;;;;;27.15;17.23;;;;;;;1.95;87.09;102166.34;7394979;19;20015;-65
2022/03/16 06:31:37;;;;;;;39.65;19.63;;;;;;;1.98;87.27;102163.00;7392598;19;20472;-67
2022/03/16 06:34:06;;;;;;;34.67;16.38;;;;;;;2.01;87.30;102169.16;7392491;19;20019;-66
2022/03/16 06:36:34;;;;;;;36.50;20.45;;;;;;;2.04;87.49;102166.69;7392220;19;20503;-65
2022/03/16 06:39:12;;;;;;;38.92;21.27;;;;;;;2.07;87.49;102166.81;7392006;19;20014;-65
2022/03/16 06:41:46;;;;;;;34.35;20.00;;;;;;;2.13;87.54;102165.25;7392627;19;20031;-65
2022/03/16 06:44:14;;;;;;;38.47;19.67;;;;;;;2.17;87.70;102164.53;7392570;19;20023;-64
2022/03/16 06:46:42;;;;;;;36.17;19.13;;;;;;;2.23;87.93;102169.94;7392293;19;20023;-64
2022/03/16 06:49:11;;;;;;;36.80;19.80;;;;;;;2.27;87.87;102169.22;7392354;19;20026;-65
2022/03/16 06:51:39;;;;;;;34.17;17.48;;;;;;;2.33;87.88;102184.97;7392278;19;20019;-65
2022/03/16 06:54:09;;;;;;;32.05;19.75;;;;;;;2.38;88.04;102175.66;7391669;19;20031;-66
2022/03/16 06:56:38;;;;;;;39.08;19.10;;;;;;;2.43;88.01;102168.03;7394447;19;20063;-64
2022/03/16 06:59:06;;;;;;;36.22;20.23;;;;;;;2.48;88.25;102169.09;7391642;19;20019;-64
2022/03/16 07:01:34;;;;;;;37.42;20.08;;;;;;;2.54;88.42;102173.56;7391216;19;20475;-65
2022/03/16 07:04:02;;;;;;;38.20;21.65;;;;;;;2.60;88.86;102168.59;7391309;19;20027;-67
2022/03/16 07:06:30;;;;;;;40.53;22.17;;;;;;;2.67;88.97;102168.00;7391643;19;20041;-66
2022/03/16 07:08:58;;;;;;;37.60;21.95;;;;;;;2.74;89.11;102177.75;7391240;19;20023;-66
2022/03/16 07:11:29;;;;;;;38.28;23.02;;;;;;;2.83;89.08;102182.38;7391558;19;20023;-65
2022/03/16 07:16:38;;;;;;;35.28;20.70;;;;;;;2.98;89.19;102186.28;7393248;19;20026;-65
2022/03/16 07:19:06;;;;;;;43.28;20.35;;;;;;;3.04;89.12;102195.13;7393162;19;20037;-65
2022/03/16 07:21:34;;;;;;;35.67;19.88;;;;;;;3.10;88.97;102197.06;7393404;19;20022;-64
2022/03/16 07:24:02;;;;;;;38.38;21.67;;;;;;;3.17;88.92;102199.03;7391024;19;20039;-66
2022/03/16 07:26:33;;;;;;;34.00;20.52;;;;;;;3.25;89.18;102202.72;7390798;19;20032;-66
2022/03/16 07:29:02;;;;;;;36.67;20.35;;;;;;;3.33;89.02;102202.09;7391081;19;20373;-66
2022/03/16 07:31:30;;;;;;;36.72;19.63;;;;;;;3.39;89.24;102205.75;7390753;19;20015;-66
2022/03/16 07:33:58;;;;;;;38.13;22.60;;;;;;;3.48;89.40;102206.91;7394229;19;20497;-65
2022/03/16 07:36:27;;;;;;;37.67;21.15;;;;;;;3.55;89.32;102212.31;7399974;19;20022;-66
2022/03/16 07:38:55;;;;;;;35.58;20.50;;;;;;;3.64;89.40;102224.69;7399656;19;20018;-67
2022/03/16 07:41:23;;;;;;;38.13;21.52;;;;;;;3.67;89.23;102214.41;7397495;19;20018;-66
2022/03/16 07:43:54;;;;;;;36.08;21.55;;;;;;;3.80;89.20;102227.75;7397984;19;20023;-66
2022/03/16 07:46:22;;;;;;;35.70;20.88;;;;;;;3.86;89.04;102227.94;7397438;19;20021;-66
2022/03/16 07:48:51;;;;;;;37.70;20.17;;;;;;;3.94;89.12;102236.81;7397072;19;20022;-66
2022/03/16 07:51:19;;;;;;;36.03;19.25;;;;;;;4.01;88.91;102227.50;7400021;19;20014;-66
2022/03/16 07:53:47;;;;;;;40.33;20.48;;;;;;;4.08;88.90;102235.53;7397189;19;20483;-66
2022/03/16 07:56:15;;;;;;;35.72;20.38;;;;;;;4.11;88.97;102220.84;7396885;19;20452;-66
2022/03/16 07:58:45;;;;;;;32.47;19.70;;;;;;;4.21;89.07;102228.97;7399667;19;20018;-67
2022/03/16 08:01:15;;;;;;;37.42;21.55;;;;;;;4.30;88.69;102235.28;7397242;19;20018;-65
2022/03/16 08:03:43;;;;;;;39.97;21.17;;;;;;;4.37;88.88;102234.56;7397540;19;20026;-64
2022/03/16 08:06:12;;;;;;;33.78;20.35;;;;;;;4.44;88.65;102239.13;7399547;19;20015;-66
2022/03/16 08:08:40;;;;;;;38.38;20.52;;;;;;;4.51;88.63;102229.75;7396966;19;20023;-66
2022/03/16 08:11:08;;;;;;;35.90;20.77;;;;;;;4.59;88.50;102238.66;7399638;19;20056;-67
2022/03/16 08:13:37;;;;;;;38.22;20.33;;;;;;;4.67;88.42;102236.25;7396536;19;20019;-66
2022/03/16 08:16:06;;;;;;;34.63;20.60;;;;;;;4.75;88.59;102237.34;7396603;19;20014;-67
2022/03/16 08:18:37;;;;;;;67.50;36.78;;;;;;;4.84;88.30;102239.28;7398300;19;20031;-67
2022/03/16 08:21:06;;;;;;;48.72;24.73;;;;;;;4.94;88.31;102237.81;7398270;19;20483;-67
2022/03/16 08:23:35;;;;;;;34.00;20.13;;;;;;;5.02;88.15;102244.09;7397665;19;20031;-65
2022/03/16 08:26:03;;;;;;;34.47;21.15;;;;;;;5.12;88.05;102240.00;7396503;19;20026;-66
2022/03/16 08:28:31;;;;;;;30.98;19.55;;;;;;;5.21;87.99;102245.44;7396449;19;20480;-68
2022/03/16 08:31:01;;;;;;;33.22;20.13;;;;;;;5.32;87.86;102243.09;7398539;19;20023;-65
2022/03/16 08:33:29;;;;;;;40.47;21.55;;;;;;;5.39;87.84;102238.06;7396881;19;20011;-67
2022/03/16 08:36:01;;;;;;;33.10;21.63;;;;;;;5.50;87.75;102246.13;7395948;19;20026;-67
2022/03/16 08:38:30;;;;;;;35.95;19.58;;;;;;;5.61;87.68;102258.50;7395118;19;20513;-66
2022/03/16 08:41:05;;;;;;;32.50;19.45;;;;;;;5.70;87.50;102249.19;7395954;19;20032;-66
2022/03/16 08:43:34;;;;;;;34.38;19.58;;;;;;;5.80;87.12;102252.91;7395417;19;20506;-66
2022/03/16 08:46:03;;;;;;;31.02;18.77;;;;;;;5.90;87.11;102251.34;7396017;19;20018;-66
2022/03/16 08:48:32;;;;;;;28.40;17.40;;;;;;;6.02;87.15;102254.25;7397941;19;20031;-66
2022/03/16 08:51:03;;;;;;;28.00;17.00;;;;;;;6.12;86.54;102244.06;7398153;19;20036;-66
2022/03/16 08:53:31;;;;;;;29.33;18.42;;;;;;;6.24;86.39;102240.81;7396547;19;20010;-67
2022/03/16 08:56:00;;;;;;;26.10;17.70;;;;;;;6.36;86.03;102243.66;7397457;19;20032;-67
2022/03/16 08:58:28;;;;;;;30.80;17.52;;;;;;;6.47;85.86;102233.44;7397149;19;20496;-67
2022/03/16 09:00:56;;;;;;;25.80;15.70;;;;;;;6.58;85.49;102233.66;7395792;19;20014;-66
2022/03/16 09:03:24;;;;;;;29.50;17.25;;;;;;;6.70;85.28;102236.47;7395645;19;20019;-66
2022/03/16 09:05:52;;;;;;;28.02;17.25;;;;;;;6.81;84.67;102231.44;7397834;19;20023;-66
2022/03/16 09:08:23;;;;;;;27.80;16.73;;;;;;;6.94;84.39;102235.16;7397637;19;20384;-67
2022/03/16 09:10:51;;;;;;;27.35;16.00;;;;;;;7.06;84.01;102240.56;7396054;19;20032;-66
2022/03/16 09:13:20;;;;;;;24.77;16.33;;;;;;;7.17;83.62;102248.59;7396101;19;20018;-66
2022/03/16 09:15:49;;;;;;;29.20;15.57;;;;;;;7.29;83.21;102245.28;7397638;19;20010;-66
2022/03/16 09:18:18;;;;;;;24.63;14.70;;;;;;;7.40;82.70;102248.09;7398163;19;20014;-66
2022/03/16 09:20:46;;;;;;;24.17;14.68;;;;;;;7.50;82.24;102247.38;7397135;19;20037;-66
2022/03/16 09:23:15;;;;;;;25.70;14.23;;;;;;;7.61;81.63;102244.94;7394852;19;20019;-65
2022/03/16 09:25:45;;;;;;;21.00;12.90;;;;;;;7.71;80.73;102244.19;7395435;19;20502;-67
2022/03/16 09:28:14;;;;;;;23.85;12.60;;;;;;;7.82;79.37;102245.22;7396379;19;20029;-66
2022/03/16 09:30:42;;;;;;;18.40;11.05;;;;;;;7.94;79.25;102247.13;7394629;19;20018;-66
2022/03/16 09:33:10;;;;;;;20.08;11.10;;;;;;;8.06;78.16;102248.13;7395119;19;20022;-66
2022/03/16 09:35:38;;;;;;;18.15;10.80;;;;;;;8.18;77.58;102260.50;7393903;19;20483;-66
2022/03/16 09:38:07;;;;;;;22.45;11.68;;;;;;;8.30;77.13;102258.03;7395807;19;20022;-67
2022/03/16 09:40:36;;;;;;;17.98;11.40;;;;;;;8.40;77.04;102249.41;7393971;19;20007;-67
2022/03/16 09:43:09;;;;;;;19.75;11.30;;;;;;;8.50;76.82;102260.91;7395073;19;20022;-66
2022/03/16 09:45:46;;;;;;;22.65;11.50;;;;;;;8.59;76.35;102255.78;7394557;19;20099;-66
2022/03/16 09:48:16;;;;;;;20.30;11.48;;;;;;;8.68;76.34;102251.50;7396322;19;20023;-66
2022/03/16 09:50:44;;;;;;;19.00;10.88;;;;;;;8.76;75.96;102249.84;7396006;19;20028;-66
2022/03/16 09:53:12;;;;;;;18.85;11.13;;;;;;;8.81;75.03;102253.38;7394232;19;20035;-67
2022/03/16 09:55:40;;;;;;;18.42;11.05;;;;;;;8.86;74.97;102251.69;7394075;19;20483;-66
2022/03/16 09:58:11;;;;;;;18.50;10.65;;;;;;;8.94;74.79;102255.25;7395272;19;20475;-67
2022/03/16 10:00:40;;;;;;;18.17;10.00;;;;;;;9.01;73.83;102257.91;7393854;19;20027;-67
2022/03/16 10:03:08;;;;;;;16.20;9.75;;;;;;;9.09;73.22;102253.66;7393217;19;20403;-66
2022/03/16 10:05:38;;;;;;;18.92;10.07;;;;;;;9.20;73.15;102256.34;7393584;19;20039;-66
2022/03/16 10:08:08;;;;;;;22.70;10.80;;;;;;;9.30;72.60;102258.16;7395318;19;20033;-67
2022/03/16 10:13:24;;;;;;;20.80;11.23;;;;;;;9.51;72.03;102259.22;7393899;19;20023;-66
2022/03/16 10:15:55;;;;;;;17.35;10.10;;;;;;;9.66;71.57;102263.69;7393427;19;20019;-66
2022/03/16 10:18:25;;;;;;;13.75;8.95;;;;;;;9.76;71.14;102268.09;7394983;19;20063;-66
2022/03/16 10:20:54;;;;;;;16.30;9.68;;;;;;;9.88;70.74;102268.19;7394341;19;20015;-67
2022/03/16 10:23:24;;;;;;;17.88;9.63;;;;;;;9.99;70.08;102272.59;7393706;19;20015;-67
2022/03/16 10:25:55;;;;;;;20.08;8.63;;;;;;;10.09;70.15;102274.41;7394816;19;20052;-66
2022/03/16 10:28:27;;;;;;;17.90;9.95;;;;;;;10.22;69.60;102277.94;7392791;19;20371;-67
2022/03/16 10:30:58;;;;;;;19.55;9.30;;;;;;;10.35;69.22;102263.13;7394685;19;20035;-66
2022/03/16 10:33:30;;;;;;;15.43;9.18;;;;;;;10.48;68.62;102264.97;7392501;19;20015;-67
2022/03/16 10:36:06;;;;;;;13.63;8.65;;;;;;;10.66;67.98;102273.75;7392922;19;20018;-66
2022/03/16 10:38:40;;;;;;;14.88;7.47;;;;;;;10.83;67.27;102268.53;7394507;19;20026;-67
2022/03/16 10:41:14;;;;;;;12.20;6.73;;;;;;;10.98;66.58;102265.06;7391148;19;20327;-65
2022/03/16 10:46:40;;;;;;;16.20;7.85;;;;;;;11.26;66.48;102268.59;7394150;19;19942;-66
2022/03/16 10:49:10;;;;;;;12.90;7.47;;;;;;;11.38;65.77;102254.53;7392071;19;20022;-66
2022/03/16 10:51:39;;;;;;;13.00;6.93;;;;;;;11.55;65.06;102262.41;7391870;19;20014;-66
2022/03/16 10:54:09;;;;;;;15.65;7.45;;;;;;;11.65;64.72;102250.13;7391282;19;20047;-67
2022/03/16 10:56:42;;;;;;;11.80;7.63;;;;;;;11.78;64.25;102257.13;7393909;19;20019;-66
2022/03/16 10:59:13;;;;;;;16.13;7.65;;;;;;;11.89;63.24;102257.06;7392140;19;20040;-65
2022/03/16 11:01:42;;;;;;;12.20;6.57;;;;;;;11.99;62.91;102256.22;7391601;19;20018;-67
2022/03/16 11:04:10;;;;;;;11.63;7.75;;;;;;;12.08;62.31;102252.69;7390943;19;20369;-65
2022/03/16 11:06:39;;;;;;;13.07;7.95;;;;;;;12.15;61.91;102253.53;7393508;19;20018;-66
2022/03/16 11:09:08;;;;;;;12.07;7.53;;;;;;;12.19;61.17;102250.84;7395271;19;20028;-66
2022/03/16 11:14:21;;;;;;;14.27;8.45;;;;;;;12.26;60.85;102256.97;7397540;19;20371;-65
2022/03/16 11:16:56;;;;;;;10.60;7.10;;;;;;;12.30;60.42;102252.59;7398567;19;20015;-65
2022/03/16 11:19:25;;;;;;;17.58;7.72;;;;;;;12.32;60.17;102258.69;7400738;19;20022;-65
2022/03/16 11:22:00;;;;;;;11.63;7.15;;;;;;;12.32;59.82;102253.44;7400274;19;20019;-65
2022/03/16 11:24:32;;;;;;;10.27;6.80;;;;;;;12.33;59.97;102255.19;7401317;19;20406;-66
2022/03/16 11:27:20;;;;;;;11.02;6.63;;;;;;;12.32;59.43;102256.97;7400842;19;20053;-65
2022/03/16 11:30:19;;;;;;;11.65;7.35;;;;;;;12.37;58.48;102255.16;7401632;19;20025;-66
2022/03/16 11:32:48;;;;;;;10.20;7.07;;;;;;;12.39;59.15;102242.00;7398423;19;20451;-67
2022/03/16 11:35:18;;;;;;;11.13;6.90;;;;;;;12.45;59.25;102251.59;7397361;19;20019;-67
2022/03/16 11:37:48;;;;;;;10.90;6.82;;;;;;;12.47;58.53;102245.47;7397443;19;20031;-67